createdAt,value
2023-02-03T00:02:13.242Z,99225.94
2023-02-03T00:04:39.802Z,99211.97
2023-02-03T00:07:06.670Z,99211.16
2023-02-03T00:09:33.237Z,99212.19
2023-02-03T00:12:02.478Z,99194.69
2023-02-03T00:14:28.997Z,99199.91
2023-02-03T00:16:55.532Z,99189.47
2023-02-03T00:19:22.184Z,99198.16
2023-02-03T00:21:51.489Z,99191.19
2023-02-03T00:24:20.378Z,99177.28
2023-02-03T00:26:48.613Z,99166.88
2023-02-03T00:29:15.455Z,99167.94
2023-02-03T00:31:42.032Z,99182.06
2023-02-03T00:34:08.663Z,99184.78
2023-02-03T00:36:43.149Z,99163.91
2023-02-03T00:39:09.696Z,99170.97
2023-02-03T00:41:39.508Z,99158.84
2023-02-03T00:44:05.991Z,99170.22
2023-02-03T00:46:32.575Z,99173.69
2023-02-03T00:48:59.091Z,99171.03
2023-02-03T00:51:29.089Z,99163.19
2023-02-03T00:54:00.705Z,99161.59
2023-02-03T00:56:27.140Z,99154.59
2023-02-03T00:58:53.653Z,99160.72
2023-02-03T01:01:20.237Z,99141.47
2023-02-03T01:03:50.211Z,99156.34
2023-02-03T01:06:20.498Z,99162.50
2023-02-03T01:08:48.001Z,99170.41
2023-02-03T01:11:23.004Z,99167.69
2023-02-03T01:13:50.314Z,99165.09
2023-02-03T01:16:19.934Z,99172.03
2023-02-03T01:18:47.295Z,99165.13
2023-02-03T01:21:20.539Z,99162.56
2023-02-03T01:23:49.078Z,99166.00
2023-02-03T01:26:18.941Z,99166.91
2023-02-03T01:28:54.426Z,99168.66
2023-02-03T01:31:30.724Z,99165.22
2023-02-03T01:34:01.325Z,99149.44
2023-02-03T01:36:30.223Z,99149.56
2023-02-03T01:38:57.083Z,99154.03
2023-02-03T01:41:27.339Z,99154.06
2023-02-03T01:43:56.587Z,99155.00
2023-02-03T01:46:38.852Z,99151.59
2023-02-03T01:49:19.797Z,99141.97
2023-02-03T01:51:50.268Z,99149.13
2023-02-03T01:54:26.487Z,99153.41
2023-02-03T01:57:02.032Z,99156.88
2023-02-03T01:59:31.931Z,99159.53
2023-02-03T02:01:59.562Z,99147.38
2023-02-03T02:04:36.737Z,99150.78
2023-02-03T02:07:04.067Z,99158.78
2023-02-03T02:09:30.579Z,99151.81
2023-02-03T02:12:03.592Z,99154.56
2023-02-03T02:14:30.538Z,99147.59
2023-02-03T02:17:23.804Z,99133.47
2023-02-03T02:20:16.242Z,99128.16
2023-02-03T02:22:54.620Z,99106.28
2023-02-03T02:25:42.871Z,99108.06
2023-02-03T02:28:17.217Z,99098.56
2023-02-03T02:31:24.801Z,99072.28
2023-02-03T02:33:51.370Z,99078.47
2023-02-03T02:36:51.824Z,99080.22
2023-02-03T02:39:31.063Z,99083.69
2023-02-03T02:42:15.956Z,99084.59
2023-02-03T02:44:49.565Z,99096.03
2023-02-03T02:47:19.143Z,99082.97
2023-02-03T02:49:54.298Z,99074.09
2023-02-03T02:52:23.693Z,99061.81
2023-02-03T02:54:54.593Z,99053.94
2023-02-03T02:57:24.762Z,99056.66
2023-02-03T02:59:51.235Z,99045.25
2023-02-03T03:02:18.247Z,99047.03
2023-02-03T03:04:47.602Z,99047.03
2023-02-03T03:07:21.421Z,99053.06
2023-02-03T03:09:54.554Z,99053.03
2023-02-03T03:12:29.419Z,99061.75
2023-02-03T03:15:02.828Z,99062.59
2023-02-03T03:17:33.999Z,99043.31
2023-02-03T03:20:06.063Z,99031.09
2023-02-03T03:22:40.238Z,99032.00
2023-02-03T03:25:12.606Z,99013.59
2023-02-03T03:27:45.041Z,99002.28
2023-02-03T03:30:21.845Z,99012.91
2023-02-03T03:32:49.011Z,99011.13
2023-02-03T03:35:16.261Z,99005.91
2023-02-03T03:37:55.404Z,99027.88
2023-02-03T03:40:30.231Z,99041.16
2023-02-03T03:43:02.611Z,99028.88
2023-02-03T03:45:41.035Z,99034.16
2023-02-03T03:48:19.510Z,99035.91
2023-02-03T03:50:58.250Z,99048.28
2023-02-03T03:53:29.055Z,99041.34
2023-02-03T03:55:56.928Z,99043.09
2023-02-03T03:58:29.805Z,99049.34
2023-02-03T04:00:59.769Z,99020.47
2023-02-03T04:03:35.281Z,99028.25
2023-02-03T04:06:04.770Z,99024.75
2023-02-03T04:08:31.288Z,99034.44
2023-02-03T04:10:57.749Z,99030.97
2023-02-03T04:13:24.208Z,98997.63
2023-02-03T04:15:50.712Z,99016.97
2023-02-03T04:18:17.515Z,99003.75
2023-02-03T04:20:44.149Z,98988.84
2023-02-03T04:23:10.916Z,98988.78
2023-02-03T04:25:37.517Z,98984.41
2023-02-03T04:28:04.420Z,98962.47
2023-02-03T04:30:30.943Z,98959.91
2023-02-03T04:32:57.636Z,98964.22
2023-02-03T04:35:24.254Z,98958.16
2023-02-03T04:37:50.739Z,98953.81
2023-02-03T04:40:17.650Z,98951.19
2023-02-03T04:42:44.213Z,98943.31
2023-02-03T04:45:12.088Z,98945.06
2023-02-03T04:47:39.426Z,98940.56
2023-02-03T04:50:06.439Z,98930.97
2023-02-03T04:52:32.988Z,98923.97
2023-02-03T04:54:59.478Z,98928.44
2023-02-03T04:57:25.918Z,98933.63
2023-02-03T04:59:52.425Z,98940.63
2023-02-03T05:02:18.899Z,98942.47
2023-02-03T05:04:45.368Z,98945.09
2023-02-03T05:07:12.010Z,98953.84
2023-02-03T05:09:41.310Z,98934.66
2023-02-03T05:12:07.828Z,98950.50
2023-02-03T05:14:34.282Z,98945.16
2023-02-03T05:17:00.752Z,98948.72
2023-02-03T05:19:27.299Z,98932.94
2023-02-03T05:21:53.803Z,98936.47
2023-02-03T05:24:20.293Z,98928.56
2023-02-03T05:26:46.786Z,98941.75
2023-02-03T05:29:13.255Z,98921.63
2023-02-03T05:31:39.828Z,98918.94
2023-02-03T05:34:06.358Z,98936.50
2023-02-03T05:36:32.842Z,98926.94
2023-02-03T05:38:59.334Z,98927.84
2023-02-03T05:41:44.285Z,98913.75
2023-02-03T05:44:10.876Z,98925.22
2023-02-03T05:46:37.348Z,98915.53
2023-02-03T05:49:03.822Z,98915.53
2023-02-03T05:51:30.328Z,98921.69
2023-02-03T05:53:56.752Z,98913.84
2023-02-03T05:56:23.262Z,98912.06
2023-02-03T05:58:53.112Z,98918.16
2023-02-03T06:01:20.009Z,98891.88
2023-02-03T06:03:47.764Z,98902.41
2023-02-03T06:06:15.103Z,98905.91
2023-02-03T06:08:41.637Z,98906.00
2023-02-03T06:11:08.334Z,98890.19
2023-02-03T06:13:35.031Z,98915.56
2023-02-03T06:16:01.602Z,98895.38
2023-02-03T06:18:28.120Z,98902.44
2023-02-03T06:20:54.593Z,98898.03
2023-02-03T06:23:21.326Z,98916.44
2023-02-03T06:25:48.983Z,98925.28
2023-02-03T06:28:15.641Z,98922.69
2023-02-03T06:30:43.037Z,98880.47
2023-02-03T06:33:10.066Z,98915.59
2023-02-03T06:35:37.956Z,98920.81
2023-02-03T06:38:04.446Z,98926.19
2023-02-03T06:40:31.198Z,98918.22
2023-02-03T06:42:57.840Z,98910.25
2023-02-03T06:45:24.927Z,98915.50
2023-02-03T06:47:51.606Z,98910.16
2023-02-03T06:50:18.296Z,98925.00
2023-02-03T06:52:44.997Z,98920.56
2023-02-03T06:55:11.771Z,98919.75
2023-02-03T06:57:46.765Z,98915.28
2023-02-03T07:00:18.176Z,98904.72
2023-02-03T07:02:45.528Z,98911.81
2023-02-03T07:05:12.007Z,98915.22
2023-02-03T07:07:39.520Z,98908.19
2023-02-03T07:10:06.584Z,98899.56
2023-02-03T07:12:33.085Z,98902.19
2023-02-03T07:14:59.593Z,98896.91
2023-02-03T07:17:26.168Z,98892.44
2023-02-03T07:19:56.078Z,98894.19
2023-02-03T07:22:22.573Z,98887.16
2023-02-03T07:24:49.084Z,98893.31
2023-02-03T07:27:15.581Z,98867.88
2023-02-03T07:29:42.052Z,98880.13
2023-02-03T07:32:08.741Z,98874.75
2023-02-03T07:34:35.376Z,98867.81
2023-02-03T07:37:02.136Z,98888.00
2023-02-03T07:39:28.665Z,98890.72
2023-02-03T07:41:55.153Z,98876.69
2023-02-03T07:44:21.658Z,98878.41
2023-02-03T07:46:48.200Z,98872.28
2023-02-03T07:49:15.270Z,98873.25
2023-02-03T07:51:41.743Z,98857.34
2023-02-03T07:54:08.415Z,98881.94
2023-02-03T07:56:34.970Z,98867.09
2023-02-03T07:59:01.447Z,98844.19
2023-02-03T08:01:28.015Z,98861.88
2023-02-03T08:03:55.344Z,98837.31
2023-02-03T08:06:22.581Z,98842.59
2023-02-03T08:08:49.042Z,98826.81
2023-02-03T08:11:15.585Z,98841.81
2023-02-03T08:13:42.044Z,98818.13
2023-02-03T08:16:08.663Z,98811.03
2023-02-03T08:18:35.192Z,98813.66
2023-02-03T08:21:03.613Z,98840.94
2023-02-03T08:23:30.996Z,98833.03
2023-02-03T08:25:57.472Z,98827.75
2023-02-03T08:28:24.004Z,98826.97
2023-02-03T08:30:51.045Z,98831.34
2023-02-03T08:33:17.645Z,98821.66
2023-02-03T08:35:49.682Z,98833.84
2023-02-03T08:38:16.727Z,98816.34
2023-02-03T08:40:43.432Z,98804.97
2023-02-03T08:43:11.364Z,98819.91
2023-02-03T08:45:40.356Z,98786.47
2023-02-03T08:48:07.022Z,98796.22
2023-02-03T08:50:33.520Z,98803.22
2023-02-03T08:53:00.022Z,98797.97
2023-02-03T08:55:26.632Z,98810.25
2023-02-03T08:57:53.112Z,98808.53
2023-02-03T09:00:20.176Z,98818.19
2023-02-03T09:02:46.621Z,98827.78
2023-02-03T09:05:15.943Z,98803.22
2023-02-03T09:07:42.443Z,98834.88
2023-02-03T09:10:09.381Z,98849.84
2023-02-03T09:12:36.323Z,98843.72
2023-02-03T09:15:02.874Z,98847.25
2023-02-03T09:17:29.322Z,98846.38
2023-02-03T09:19:55.874Z,98848.19
2023-02-03T09:22:22.391Z,98847.34
2023-02-03T09:24:51.341Z,98847.34
2023-02-03T09:27:17.889Z,98830.69
2023-02-03T09:29:44.357Z,98826.28
2023-02-03T09:32:11.106Z,98809.69
2023-02-03T09:34:39.758Z,98823.69
2023-02-03T09:37:06.263Z,98829.91
2023-02-03T09:39:32.912Z,98822.81
2023-02-03T09:42:14.576Z,98820.25
2023-02-03T09:44:58.423Z,98839.47
2023-02-03T09:47:28.963Z,98819.28
2023-02-03T09:50:01.890Z,98827.16
2023-02-03T09:52:33.224Z,98805.16
2023-02-03T09:55:05.642Z,98805.13
2023-02-03T09:57:40.489Z,98798.09
2023-02-03T10:00:20.718Z,98794.59
2023-02-03T10:03:00.716Z,98789.31
2023-02-03T10:05:33.340Z,98779.69
2023-02-03T10:08:58.456Z,98788.53
2023-02-03T10:11:43.647Z,98773.63
2023-02-03T10:14:32.947Z,98782.38
2023-02-03T10:17:12.435Z,98784.19
2023-02-03T10:19:48.378Z,98783.31
2023-02-03T10:22:22.937Z,98791.16
2023-02-03T10:25:17.017Z,98794.69
2023-02-03T10:27:44.044Z,98795.59
2023-02-03T10:30:24.248Z,98815.72
2023-02-03T10:33:16.335Z,98824.56
2023-02-03T10:35:56.422Z,98836.84
2023-02-03T10:39:01.705Z,98833.41
2023-02-03T10:41:30.253Z,98812.38
2023-02-03T10:43:58.361Z,98826.38
2023-02-03T10:46:29.633Z,98818.50
2023-02-03T10:48:56.583Z,98834.22
2023-02-03T10:51:24.258Z,98829.72
2023-02-03T10:53:53.482Z,98829.78
2023-02-03T10:56:26.991Z,98833.31
2023-02-03T10:58:56.800Z,98823.63
2023-02-03T11:01:45.008Z,98839.47
2023-02-03T11:04:31.708Z,98847.31
2023-02-03T11:07:23.000Z,98856.94
2023-02-03T11:09:49.483Z,98846.47
2023-02-03T11:12:18.906Z,98860.44
2023-02-03T11:14:48.724Z,98849.09
2023-02-03T11:17:18.610Z,98854.25
2023-02-03T11:19:48.334Z,98849.00
2023-02-03T11:22:28.827Z,98862.94
2023-02-03T11:24:56.369Z,98881.50
2023-02-03T11:27:24.908Z,98874.47
2023-02-03T11:30:07.118Z,98908.66
2023-02-03T11:32:36.831Z,98881.44
2023-02-03T11:35:24.471Z,98887.47
2023-02-03T11:37:56.387Z,98871.81
2023-02-03T11:40:26.392Z,98862.13
2023-02-03T11:42:53.017Z,98867.38
2023-02-03T11:45:26.706Z,98861.28
2023-02-03T11:47:57.673Z,98865.69
2023-02-03T11:50:45.447Z,98862.25
2023-02-03T11:53:20.908Z,98857.91
2023-02-03T11:56:11.115Z,98863.16
2023-02-03T11:58:44.652Z,98873.69
2023-02-03T12:01:26.443Z,98877.31
2023-02-03T12:04:10.363Z,98886.94
2023-02-03T12:06:57.904Z,98882.56
2023-02-03T12:09:40.479Z,98894.88
2023-02-03T12:12:13.615Z,98900.94
2023-02-03T12:14:49.192Z,98900.94
2023-02-03T12:17:40.159Z,98906.28
2023-02-03T12:20:25.212Z,98913.34
2023-02-03T12:23:19.067Z,98923.88
2023-02-03T12:26:00.755Z,98917.72
2023-02-03T12:28:40.479Z,98917.72
2023-02-03T12:31:19.079Z,98902.81
2023-02-03T12:33:57.453Z,98916.03
2023-02-03T12:36:32.888Z,98912.56
2023-02-03T12:39:06.355Z,98894.13
2023-02-03T12:41:38.052Z,98900.38
2023-02-03T12:44:33.297Z,98901.28
2023-02-03T12:47:06.156Z,98900.38
2023-02-03T12:49:46.150Z,98886.28
2023-02-03T12:52:23.104Z,98896.81
2023-02-03T12:55:08.712Z,98906.47
2023-02-03T12:57:55.061Z,98898.56
2023-02-03T13:00:37.213Z,98890.63
2023-02-03T13:03:26.024Z,98902.03
2023-02-03T13:05:56.411Z,98898.53
2023-02-03T13:08:31.506Z,98903.81
2023-02-03T13:11:10.159Z,98923.22
2023-02-03T13:13:45.618Z,98929.34
2023-02-03T13:16:15.795Z,98924.97
2023-02-03T13:18:47.922Z,98927.50
2023-02-03T13:21:14.422Z,98922.31
2023-02-03T13:23:53.689Z,98944.16
2023-02-03T13:26:38.285Z,98930.09
2023-02-03T13:29:08.052Z,98946.78
2023-02-03T13:31:52.475Z,98951.97
2023-02-03T13:34:36.496Z,98958.16
2023-02-03T13:37:31.117Z,98963.50
2023-02-03T13:40:16.947Z,98944.22
2023-02-03T13:42:52.532Z,98945.97
2023-02-03T13:45:33.889Z,98933.66
2023-02-03T13:48:14.816Z,98947.72
2023-02-03T13:50:41.745Z,98936.31
2023-02-03T13:53:17.970Z,98939.03
2023-02-03T13:55:57.884Z,98937.31
2023-02-03T13:58:33.847Z,98952.19
2023-02-03T14:01:28.429Z,98947.88
2023-02-03T14:03:55.738Z,98962.75
2023-02-03T14:06:40.624Z,98964.53
2023-02-03T14:09:34.571Z,98956.59
2023-02-03T14:12:16.103Z,98963.63
2023-02-03T14:15:03.151Z,98968.00
2023-02-03T14:17:35.956Z,98978.44
2023-02-03T14:20:25.299Z,98996.88
2023-02-03T14:23:06.492Z,98988.09
2023-02-03T14:25:44.335Z,98988.97
2023-02-03T14:28:14.835Z,98995.97
2023-02-03T14:31:11.849Z,98991.50
2023-02-03T14:33:55.195Z,98989.75
2023-02-03T14:36:31.408Z,99009.03
2023-02-03T14:39:01.595Z,99000.22
2023-02-03T14:42:09.558Z,99006.34
2023-02-03T14:45:08.255Z,99008.13
2023-02-03T14:47:37.464Z,99012.50
2023-02-03T14:50:32.367Z,99030.06
2023-02-03T14:52:58.796Z,99020.47
2023-02-03T14:55:37.664Z,99022.13
2023-02-03T14:58:24.979Z,99012.38
2023-02-03T15:00:52.681Z,99022.06
2023-02-03T15:03:22.752Z,99028.28
2023-02-03T15:05:55.176Z,99049.25
2023-02-03T15:08:42.805Z,99023.75
2023-02-03T15:11:16.945Z,99034.28
2023-02-03T15:13:43.437Z,99048.22
2023-02-03T15:16:16.918Z,99034.09
2023-02-03T15:18:43.592Z,99048.16
2023-02-03T15:21:17.773Z,99039.31
2023-02-03T15:23:48.449Z,99042.91
2023-02-03T15:26:19.804Z,99045.44
2023-02-03T15:29:04.088Z,99038.41
2023-02-03T15:31:39.069Z,99043.69
2023-02-03T15:34:27.001Z,99039.38
2023-02-03T15:36:57.535Z,99043.75
2023-02-03T15:39:42.991Z,99044.56
2023-02-03T15:42:22.934Z,99057.63
2023-02-03T15:45:16.062Z,99051.53
2023-02-03T15:47:55.398Z,99062.00
2023-02-03T15:50:30.985Z,99066.34
2023-02-03T15:53:04.984Z,99067.19
2023-02-03T15:55:41.917Z,99068.94
2023-02-03T15:58:23.479Z,99080.34
2023-02-03T16:00:54.041Z,99075.06
2023-02-03T16:03:35.941Z,99089.06
2023-02-03T16:06:30.370Z,99109.22
2023-02-03T16:08:59.488Z,99107.47
2023-02-03T16:11:28.687Z,99115.41
2023-02-03T16:13:57.020Z,99124.19
2023-02-03T16:16:32.527Z,99130.38
2023-02-03T16:19:03.799Z,99136.38
2023-02-03T16:21:56.806Z,99158.31
2023-02-03T16:24:32.331Z,99169.72
2023-02-03T16:27:20.409Z,99191.56
2023-02-03T16:30:05.932Z,99185.34
2023-02-03T16:32:51.152Z,99187.06
2023-02-03T16:35:36.002Z,99193.06
2023-02-03T16:38:26.563Z,99191.31
2023-02-03T16:41:11.597Z,99183.25
2023-02-03T16:43:56.619Z,99206.06
2023-02-03T16:46:41.370Z,99184.09
2023-02-03T16:49:26.336Z,99200.66
2023-02-03T16:51:52.780Z,99195.31
2023-02-03T16:54:19.305Z,99193.63
2023-02-03T16:56:45.800Z,99183.03
2023-02-03T16:59:12.292Z,99187.34
2023-02-03T17:01:39.223Z,99189.06
2023-02-03T17:04:05.863Z,99195.97
2023-02-03T17:06:34.025Z,99200.59
2023-02-03T17:09:00.525Z,99197.03
2023-02-03T17:11:27.171Z,99185.53
2023-02-03T17:13:53.881Z,99183.81
2023-02-03T17:16:24.550Z,99184.94
2023-02-03T17:18:51.392Z,99183.84
2023-02-03T17:21:27.365Z,99185.53
2023-02-03T17:23:54.369Z,99190.69
2023-02-03T17:26:20.946Z,99175.81
2023-02-03T17:28:47.376Z,99196.75
2023-02-03T17:31:17.385Z,99186.25
2023-02-03T17:33:45.819Z,99191.44
2023-02-03T17:36:15.982Z,99208.22
2023-02-03T17:55:19.045Z,99215.81
2023-02-03T17:57:45.663Z,99220.16
2023-02-03T18:00:12.544Z,99207.09
2023-02-03T18:02:39.707Z,99223.72
2023-02-03T18:05:06.798Z,99214.94
2023-02-03T18:07:33.330Z,99229.06
2023-02-03T18:09:59.760Z,99230.78
2023-02-03T18:12:26.238Z,99232.50
2023-02-03T18:14:52.767Z,99244.78
2023-02-03T18:17:19.301Z,99251.72
2023-02-03T18:19:49.208Z,99256.16
2023-02-03T18:22:21.928Z,99265.78
2023-02-03T18:24:51.695Z,99266.53
2023-02-03T18:27:19.126Z,99277.91
2023-02-03T18:29:47.501Z,99275.16
2023-02-03T18:32:16.154Z,99280.84
2023-02-03T18:34:42.706Z,99277.22
2023-02-03T18:37:09.297Z,99290.22
2023-02-03T18:39:36.003Z,99295.31
2023-02-03T18:42:03.081Z,99308.38
2023-02-03T18:44:31.689Z,99317.09
2023-02-03T18:47:06.422Z,99309.28
2023-02-03T18:49:34.534Z,99316.22
2023-02-03T18:52:01.100Z,99301.13
2023-02-03T18:54:29.658Z,99313.25
2023-02-03T18:56:58.884Z,99332.59
2023-02-03T18:59:26.062Z,99323.91
2023-02-03T19:01:52.715Z,99320.31
2023-02-03T19:04:19.279Z,99316.72
2023-02-03T19:06:48.628Z,99321.25
2023-02-03T19:09:17.857Z,99323.03
2023-02-03T19:11:44.735Z,99338.78
2023-02-03T19:14:16.498Z,99317.84
2023-02-03T19:16:43.692Z,99325.75
2023-02-03T19:19:12.580Z,99316.03
2023-02-03T19:21:39.092Z,99330.88
2023-02-03T19:24:05.958Z,99335.25
2023-02-03T19:26:32.477Z,99316.88
2023-02-03T19:28:58.930Z,99333.50
2023-02-03T19:31:25.616Z,99325.69
2023-02-03T19:33:58.694Z,99327.63
2023-02-03T19:36:27.132Z,99339.69
2023-02-03T19:38:56.808Z,99354.50
2023-02-03T19:41:25.671Z,99343.97
2023-02-03T19:43:52.189Z,99362.25
2023-02-03T19:46:21.596Z,99366.63
2023-02-03T19:48:48.692Z,99384.25
2023-02-03T19:51:15.416Z,99385.63
2023-02-03T19:53:41.961Z,99395.94
2023-02-03T19:56:08.532Z,99400.94
2023-02-03T19:58:35.027Z,99391.94
2023-02-03T20:01:01.560Z,99423.13
2023-02-03T20:03:28.025Z,99404.66
2023-02-03T20:05:54.475Z,99408.88
2023-02-03T20:08:21.011Z,99417.53
2023-02-03T20:10:47.489Z,99407.66
2023-02-03T20:13:14.691Z,99410.28
2023-02-03T20:15:41.797Z,99405.88
2023-02-03T20:18:08.695Z,99401.72
2023-02-03T20:20:35.732Z,99425.09
2023-02-03T20:23:02.264Z,99424.09
2023-02-03T20:25:28.763Z,99428.44
2023-02-03T20:27:57.049Z,99434.44
2023-02-03T20:30:23.621Z,99440.69
2023-02-03T20:32:50.152Z,99446.88
2023-02-03T20:35:17.212Z,99409.22
2023-02-03T20:37:43.762Z,99422.50
2023-02-03T20:40:16.950Z,99442.56
2023-02-03T20:42:43.529Z,99440.78
2023-02-03T20:45:17.629Z,99442.56
2023-02-03T20:47:44.933Z,99452.09
2023-02-03T20:50:18.260Z,99456.59
2023-02-03T20:52:49.985Z,99454.78
2023-02-03T20:55:22.885Z,99453.38
2023-02-03T20:57:51.473Z,99457.56
2023-02-03T21:00:21.240Z,99461.03
2023-02-03T21:03:08.638Z,99463.78
2023-02-03T21:05:41.846Z,99477.00
2023-02-03T21:08:15.551Z,99452.41
2023-02-03T21:10:43.026Z,99461.16
2023-02-03T21:13:21.300Z,99457.75
2023-02-03T21:15:56.094Z,99464.97
2023-02-03T21:18:52.097Z,99456.09
2023-02-03T21:21:29.301Z,99472.69
2023-02-03T21:23:56.013Z,99480.41
2023-02-03T21:26:24.918Z,99487.28
2023-02-03T21:28:59.502Z,99492.53
2023-02-03T21:31:26.039Z,99502.97
2023-02-03T21:33:54.701Z,99505.53
2023-02-03T21:36:26.632Z,99498.53
2023-02-03T21:38:57.487Z,99507.19
2023-02-03T21:41:25.313Z,99505.34
2023-02-03T21:43:57.228Z,99518.44
2023-02-03T21:46:25.595Z,99520.13
2023-02-03T21:48:57.521Z,99523.56
2023-02-03T21:51:26.880Z,99520.94
2023-02-03T21:54:27.647Z,99533.97
2023-02-03T21:56:54.389Z,99525.53
2023-02-03T21:59:33.275Z,99533.16
2023-02-03T22:01:59.813Z,99521.69
2023-02-03T22:04:28.299Z,99542.78
2023-02-03T22:06:55.611Z,99548.94
2023-02-03T22:09:27.107Z,99552.34
2023-02-03T22:11:53.795Z,99560.09
2023-02-03T22:14:23.672Z,99568.06
2023-02-03T22:16:50.621Z,99568.06
2023-02-03T22:19:17.554Z,99581.16
2023-02-03T22:21:44.787Z,99589.97
2023-02-03T22:24:11.277Z,99588.94
2023-02-03T22:26:37.771Z,99595.16
2023-02-03T22:29:05.523Z,99608.13
2023-02-03T22:31:32.185Z,99608.78
2023-02-03T22:33:58.733Z,99613.38
2023-02-03T22:36:25.874Z,99617.72
2023-02-03T22:38:52.924Z,99606.28
2023-02-03T22:41:20.816Z,99624.66
2023-02-03T22:43:47.834Z,99621.16
2023-02-03T22:46:14.364Z,99615.84
2023-02-03T22:48:40.929Z,99624.56
2023-02-03T22:51:10.105Z,99630.66
2023-02-03T22:53:41.373Z,99629.91
2023-02-03T22:56:08.098Z,99639.47
2023-02-03T22:58:37.889Z,99632.53
2023-02-03T23:01:07.844Z,99627.19
2023-02-03T23:03:44.281Z,99639.47
2023-02-03T23:06:16.664Z,99642.00
2023-02-03T23:08:43.134Z,99663.13
2023-02-03T23:11:09.625Z,99669.16
2023-02-03T23:13:36.139Z,99674.31
2023-02-03T23:16:02.656Z,99681.34
2023-02-03T23:18:29.230Z,99709.50
2023-02-03T23:20:57.458Z,99702.25
2023-02-03T23:23:23.981Z,99703.56
2023-02-03T23:25:53.813Z,99712.19
2023-02-03T23:28:20.420Z,99705.16
2023-02-03T23:30:47.157Z,99723.25
2023-02-03T23:33:13.726Z,99734.44
2023-02-03T23:35:45.859Z,99739.66
2023-02-03T23:38:16.987Z,99750.34
2023-02-03T23:40:45.201Z,99752.03
2023-02-03T23:43:15.359Z,99761.59
2023-02-03T23:45:41.894Z,99778.16
2023-02-03T23:48:08.643Z,99779.94
2023-02-03T23:50:35.347Z,99772.91
2023-02-03T23:53:01.887Z,99775.50
2023-02-03T23:55:29.070Z,99793.84
2023-02-03T23:57:55.554Z,99781.44
